Time;durP1;ratioP1;P1;durP2;ratioP2;P2;SDS_P1;SDS_P2;PMS_P1;PMS_P2;Temp;Humidity;BMP_temperature;BMP_pressure;BME280_temperature;BME280_humidity;BME280_pressure;Samples;Min_cycle;Max_cycle;Signal;HPM_P1;HPM_P2
2022/07/06 00:01:47;;;;;;;4.18;2.03;;;16.10;99.90;;;;;;5100350;28;20224;-51
2022/07/06 00:04:15;;;;;;;4.18;2.10;;;16.10;99.90;;;;;;5112014;28;20215;-50
2022/07/06 00:06:43;;;;;;;3.85;1.95;;;16.00;99.90;;;;;;5084394;28;20822;-51
2022/07/06 00:09:12;;;;;;;3.28;2.10;;;15.90;99.90;;;;;;5078693;28;20238;-51
2022/07/06 00:11:40;;;;;;;7.53;2.17;;;15.80;99.90;;;;;;5092339;28;20225;-50
2022/07/06 00:14:08;;;;;;;6.13;2.42;;;15.80;99.90;;;;;;5094710;28;20281;-51
2022/07/06 00:16:36;;;;;;;6.00;2.40;;;15.70;99.90;;;;;;5098144;28;20216;-51
2022/07/06 00:19:06;;;;;;;5.15;2.10;;;15.70;99.90;;;;;;5096554;28;20224;-51
2022/07/06 00:21:34;;;;;;;3.03;2.10;;;15.60;99.90;;;;;;5095732;28;20281;-51
2022/07/06 00:24:02;;;;;;;3.47;2.00;;;15.60;99.90;;;;;;5095889;28;20558;-50
2022/07/06 00:26:30;;;;;;;3.70;2.03;;;15.50;99.90;;;;;;5092848;28;20230;-51
2022/07/06 00:28:58;;;;;;;5.38;2.30;;;15.60;99.90;;;;;;5091037;28;20254;-51
2022/07/06 00:31:26;;;;;;;2.28;2.05;;;15.60;99.90;;;;;;5100710;28;20219;-51
2022/07/06 00:33:55;;;;;;;3.10;2.30;;;15.50;99.90;;;;;;5084563;28;20546;-51
2022/07/06 00:36:24;;;;;;;2.55;2.33;;;15.40;99.90;;;;;;5085584;28;20277;-51
2022/07/06 00:38:52;;;;;;;2.40;2.07;;;15.40;99.90;;;;;;5078145;28;20217;-51
2022/07/06 00:41:20;;;;;;;5.10;2.70;;;15.30;99.90;;;;;;5090460;28;20228;-51
2022/07/06 00:43:55;;;;;;;4.55;2.20;;;15.30;99.90;;;;;;5091589;28;20337;-51
2022/07/06 00:46:28;;;;;;;2.63;2.08;;;15.20;99.90;;;;;;5087455;28;20653;-51
2022/07/06 00:48:56;;;;;;;4.18;2.40;;;15.10;99.90;;;;;;5082930;28;20204;-51
2022/07/06 00:51:29;;;;;;;3.40;2.10;;;15.10;99.90;;;;;;5092028;28;20228;-51
2022/07/06 00:54:00;;;;;;;3.90;2.03;;;15.00;99.90;;;;;;5099312;28;20245;-50
2022/07/06 00:56:31;;;;;;;4.15;2.03;;;15.00;99.90;;;;;;5102557;28;20238;-51
2022/07/06 00:59:00;;;;;;;2.20;1.98;;;15.00;99.90;;;;;;5097746;28;20746;-51
2022/07/06 01:01:28;;;;;;;3.37;2.47;;;14.90;99.90;;;;;;5091436;28;20777;-51
2022/07/06 01:03:56;;;;;;;3.40;2.13;;;14.90;99.90;;;;;;5083489;28;20201;-50
2022/07/06 01:06:26;;;;;;;3.60;2.20;;;14.80;99.90;;;;;;5085674;28;20214;-51
2022/07/06 01:08:54;;;;;;;4.60;2.17;;;14.70;99.90;;;;;;5091547;28;20576;-51
2022/07/06 01:11:22;;;;;;;3.73;2.10;;;14.60;99.90;;;;;;5091228;28;20370;-51
2022/07/06 01:13:51;;;;;;;2.87;2.20;;;14.50;99.90;;;;;;5090768;28;20201;-51
2022/07/06 01:16:20;;;;;;;3.77;2.30;;;14.40;99.90;;;;;;5091533;28;20642;-51
2022/07/06 01:18:48;;;;;;;4.87;2.57;;;14.40;99.90;;;;;;5090505;28;20253;-51
2022/07/06 01:21:17;;;;;;;3.53;2.10;;;14.30;99.90;;;;;;5091296;28;20231;-50
2022/07/06 01:23:48;;;;;;;4.47;2.50;;;14.30;99.90;;;;;;5090065;28;20204;-51
2022/07/06 01:26:17;;;;;;;5.33;2.00;;;14.30;99.90;;;;;;5090860;28;20265;-51
2022/07/06 01:28:46;;;;;;;3.30;2.27;;;14.20;99.90;;;;;;5090938;28;20670;-50
2022/07/06 01:31:19;;;;;;;5.30;2.40;;;14.20;99.90;;;;;;5079610;28;20724;-51
2022/07/06 01:33:50;;;;;;;3.53;2.20;;;14.10;99.90;;;;;;5090103;28;20210;-51
2022/07/06 01:36:19;;;;;;;3.67;2.10;;;14.00;99.90;;;;;;5091285;28;20212;-51
2022/07/06 01:38:49;;;;;;;5.73;2.50;;;14.00;99.90;;;;;;5075850;28;20843;-51
2022/07/06 01:41:17;;;;;;;4.83;2.43;;;13.90;99.90;;;;;;5090712;28;20708;-51
2022/07/06 01:43:46;;;;;;;2.57;2.30;;;13.80;99.90;;;;;;5090892;28;20204;-50
2022/07/06 01:46:14;;;;;;;4.37;2.43;;;13.80;99.90;;;;;;5090816;28;20212;-51
2022/07/06 01:48:43;;;;;;;3.13;2.40;;;13.70;99.90;;;;;;5090748;28;20270;-51
2022/07/06 01:51:11;;;;;;;2.67;2.10;;;13.70;99.90;;;;;;5090526;28;20204;-51
2022/07/06 01:53:41;;;;;;;6.80;2.47;;;13.70;99.90;;;;;;5090120;28;20212;-51
2022/07/06 01:56:10;;;;;;;4.17;2.40;;;13.70;99.90;;;;;;5090381;28;20259;-50
2022/07/06 01:58:38;;;;;;;3.97;2.33;;;13.70;99.90;;;;;;5090428;28;20549;-51
2022/07/06 02:01:10;;;;;;;2.77;2.50;;;13.60;99.90;;;;;;5090227;28;20232;-51
2022/07/06 02:03:39;;;;;;;4.73;2.30;;;13.50;99.90;;;;;;5089889;28;20209;-51
2022/07/06 02:06:08;;;;;;;4.60;2.53;;;13.50;99.90;;;;;;5090506;28;20227;-51
2022/07/06 02:08:37;;;;;;;6.27;2.53;;;13.50;99.90;;;;;;5089847;28;20669;-51
2022/07/06 02:11:07;;;;;;;4.87;2.50;;;13.50;99.90;;;;;;5089983;28;20585;-51
2022/07/06 02:13:37;;;;;;;3.77;2.53;;;13.50;99.90;;;;;;5090125;28;20207;-50
2022/07/06 02:16:05;;;;;;;2.33;2.13;;;13.40;99.90;;;;;;5090164;28;20208;-51
2022/07/06 02:18:33;;;;;;;4.30;2.33;;;13.40;99.90;;;;;;5089450;28;20255;-51
2022/07/06 02:21:01;;;;;;;5.50;2.43;;;13.40;99.90;;;;;;5090090;28;20228;-51
2022/07/06 02:23:29;;;;;;;5.00;2.53;;;13.40;99.90;;;;;;5089107;28;20208;-51
2022/07/06 02:25:57;;;;;;;4.50;2.60;;;13.30;99.90;;;;;;5089626;28;20353;-51
2022/07/06 02:28:27;;;;;;;2.73;2.30;;;13.30;99.90;;;;;;5089906;28;20345;-51
2022/07/06 02:30:55;;;;;;;2.73;2.30;;;13.30;99.90;;;;;;5089805;28;20258;-51
2022/07/06 02:33:23;;;;;;;4.17;2.50;;;13.30;99.90;;;;;;5089881;28;20261;-51
2022/07/06 02:35:51;;;;;;;3.93;2.90;;;13.30;99.90;;;;;;5089310;28;20697;-51
2022/07/06 02:38:19;;;;;;;4.23;2.77;;;13.30;99.90;;;;;;5078583;28;20205;-51
2022/07/06 02:40:48;;;;;;;3.90;2.60;;;13.30;99.90;;;;;;5086228;28;20232;-51
2022/07/06 02:43:16;;;;;;;5.87;2.30;;;13.30;99.90;;;;;;5089521;28;20642;-52
2022/07/06 02:45:46;;;;;;;4.73;2.30;;;13.40;99.90;;;;;;5089572;28;20205;-51
2022/07/06 02:48:14;;;;;;;4.30;2.70;;;13.40;99.90;;;;;;5089478;28;20215;-51
2022/07/06 02:50:42;;;;;;;5.93;2.50;;;13.40;99.90;;;;;;5089353;28;20216;-51
2022/07/06 02:53:10;;;;;;;5.53;2.40;;;13.40;99.90;;;;;;5089470;28;20230;-51
2022/07/06 02:55:38;;;;;;;4.53;2.40;;;13.40;99.90;;;;;;5089707;28;20208;-51
2022/07/06 02:58:06;;;;;;;3.80;2.70;;;13.40;99.90;;;;;;5088915;28;20205;-51
2022/07/06 03:00:34;;;;;;;4.33;2.77;;;13.50;99.90;;;;;;5089207;28;20228;-51
2022/07/06 03:03:04;;;;;;;4.53;2.77;;;13.50;99.90;;;;;;5088859;28;20227;-51
2022/07/06 03:05:32;;;;;;;2.90;2.30;;;13.40;99.90;;;;;;5089589;28;20215;-51
2022/07/06 03:08:00;;;;;;;2.80;2.57;;;13.50;99.90;;;;;;5089272;28;20212;-51
2022/07/06 03:10:28;;;;;;;3.23;2.70;;;13.50;99.90;;;;;;5088725;28;20585;-51
2022/07/06 03:12:56;;;;;;;4.10;2.73;;;13.60;99.90;;;;;;5088937;28;20289;-51
2022/07/06 03:15:24;;;;;;;4.47;2.27;;;13.60;99.90;;;;;;5089171;28;20208;-51
2022/07/06 03:17:52;;;;;;;3.20;2.50;;;13.70;99.90;;;;;;5089070;28;20269;-51
2022/07/06 03:20:22;;;;;;;2.73;2.30;;;13.70;99.90;;;;;;5075052;28;20219;-51
2022/07/06 03:22:50;;;;;;;3.30;2.23;;;13.80;99.90;;;;;;5089322;28;20220;-51
2022/07/06 03:25:18;;;;;;;5.60;2.37;;;13.80;99.90;;;;;;5088634;28;20238;-51
2022/07/06 03:27:46;;;;;;;4.30;2.23;;;13.80;99.90;;;;;;5089223;28;20208;-51
2022/07/06 03:30:15;;;;;;;4.90;2.67;;;13.80;99.90;;;;;;5088863;28;20208;-51
2022/07/06 03:32:43;;;;;;;5.33;2.43;;;13.80;99.90;;;;;;5088545;28;20236;-51
2022/07/06 03:35:11;;;;;;;5.50;2.63;;;13.80;99.90;;;;;;5089120;28;20277;-52
2022/07/06 03:37:40;;;;;;;3.63;2.53;;;13.80;99.90;;;;;;5095945;28;20250;-51
2022/07/06 03:40:09;;;;;;;2.57;2.37;;;13.90;99.90;;;;;;5083690;28;20670;-51
2022/07/06 03:42:37;;;;;;;7.40;2.80;;;13.90;99.90;;;;;;5091861;28;20286;-51
2022/07/06 03:45:07;;;;;;;4.30;2.70;;;14.00;99.90;;;;;;5093129;28;20204;-51
2022/07/06 03:47:35;;;;;;;4.43;2.97;;;14.00;99.90;;;;;;5092465;28;20208;-51
2022/07/06 03:50:03;;;;;;;4.20;2.60;;;14.10;99.90;;;;;;5093198;28;20204;-51
2022/07/06 03:52:31;;;;;;;4.93;3.00;;;14.10;99.90;;;;;;5092390;28;20281;-52
2022/07/06 03:55:00;;;;;;;6.57;2.93;;;14.10;99.90;;;;;;5092547;28;20208;-51
2022/07/06 03:57:29;;;;;;;4.17;2.47;;;14.10;99.90;;;;;;5092601;28;20659;-51
2022/07/06 03:59:57;;;;;;;5.80;2.50;;;14.10;99.90;;;;;;5092487;28;20204;-51
2022/07/06 04:02:25;;;;;;;5.93;2.80;;;14.10;99.90;;;;;;5092360;28;20228;-51
2022/07/06 04:04:53;;;;;;;6.37;2.90;;;14.10;99.90;;;;;;5092583;28;20254;-51
2022/07/06 04:07:21;;;;;;;3.83;2.67;;;14.10;99.90;;;;;;5092876;28;20265;-51
2022/07/06 04:09:49;;;;;;;4.80;2.87;;;14.10;99.90;;;;;;5090620;28;20250;-51
2022/07/06 04:12:18;;;;;;;6.37;2.90;;;14.20;99.90;;;;;;5091604;28;20782;-51
2022/07/06 04:14:46;;;;;;;6.17;3.30;;;14.20;99.90;;;;;;5092445;28;20212;-51
2022/07/06 04:20:00;;;;;;;5.47;3.27;;;14.20;99.90;;;;;;5092228;28;20629;-51
2022/07/06 04:22:34;;;;;;;3.93;3.20;;;14.30;99.90;;;;;;5091833;28;20281;-51
2022/07/06 04:25:07;;;;;;;6.23;3.30;;;14.30;99.90;;;;;;5099236;28;20230;-50
2022/07/06 04:27:36;;;;;;;6.43;3.10;;;14.40;99.90;;;;;;5101091;28;20257;-50
2022/07/06 04:30:06;;;;;;;5.47;3.47;;;14.80;99.90;;;;;;5098021;28;20273;-50
2022/07/06 04:32:35;;;;;;;5.10;3.10;;;15.30;99.90;;;;;;5093197;28;20236;-51
2022/07/06 04:35:05;;;;;;;7.00;3.50;;;16.00;99.90;;;;;;5092414;28;20293;-52
2022/07/06 04:37:33;;;;;;;7.15;3.25;;;16.60;99.90;;;;;;5087667;28;20622;-51
2022/07/06 04:40:01;;;;;;;4.43;2.92;;;17.50;99.90;;;;;;5082113;28;20669;-51
2022/07/06 04:42:30;;;;;;;5.88;3.08;;;18.10;99.90;;;;;;5091744;28;20240;-51
2022/07/06 04:44:59;;;;;;;3.35;2.30;;;18.90;99.90;;;;;;5091681;28;20204;-51
2022/07/06 04:47:27;;;;;;;5.47;2.65;;;18.80;99.90;;;;;;5090797;28;20627;-51
2022/07/06 04:49:55;;;;;;;3.13;2.67;;;19.00;99.90;;;;;;5091300;28;20277;-51
2022/07/06 04:52:23;;;;;;;5.32;3.22;;;19.70;99.90;;;;;;5091936;28;20285;-51
2022/07/06 04:54:51;;;;;;;4.32;3.60;;;19.80;99.90;;;;;;5091140;28;20203;-51
2022/07/06 04:57:20;;;;;;;4.30;3.22;;;19.40;99.90;;;;;;5092045;28;20224;-51
2022/07/06 04:59:48;;;;;;;10.10;3.80;;;18.60;99.90;;;;;;5083226;28;20262;-51
2022/07/06 05:02:17;;;;;;;7.28;3.78;;;18.00;99.90;;;;;;5090655;28;20228;-51
2022/07/06 05:04:45;;;;;;;5.95;3.40;;;17.70;99.90;;;;;;5090332;28;20240;-51
2022/07/06 05:07:13;;;;;;;6.75;3.58;;;17.50;99.90;;;;;;5090530;28;20212;-51
2022/07/06 05:09:41;;;;;;;4.72;3.40;;;17.40;99.90;;;;;;5090203;28;20607;-51
2022/07/06 05:12:15;;;;;;;5.00;3.53;;;17.30;99.90;;;;;;5090358;28;20235;-51
2022/07/06 05:14:43;;;;;;;5.88;3.47;;;17.30;99.90;;;;;;5090722;28;20200;-51
2022/07/06 05:17:11;;;;;;;7.20;3.78;;;17.30;99.90;;;;;;5089479;28;20226;-51
2022/07/06 05:19:40;;;;;;;7.45;3.70;;;17.30;99.90;;;;;;5086617;28;20212;-51
2022/07/06 05:22:09;;;;;;;7.47;3.50;;;17.40;99.90;;;;;;5090616;28;20278;-52
2022/07/06 05:24:37;;;;;;;8.23;3.70;;;17.40;99.90;;;;;;5097818;28;20245;-51
2022/07/06 05:27:05;;;;;;;4.88;3.40;;;17.70;99.90;;;;;;5090520;28;20200;-51
2022/07/06 05:29:33;;;;;;;6.93;3.30;;;19.20;99.90;;;;;;5090668;28;20254;-51
2022/07/06 05:32:01;;;;;;;3.55;2.90;;;20.20;99.90;;;;;;5090945;28;20281;-51
2022/07/06 05:34:30;;;;;;;6.28;3.28;;;20.80;99.90;;;;;;5089778;28;20216;-52
2022/07/06 05:36:59;;;;;;;3.95;3.00;;;20.20;99.90;;;;;;5090512;28;20501;-52
2022/07/06 05:39:27;;;;;;;4.57;3.40;;;19.60;99.90;;;;;;5075500;28;20201;-51
2022/07/06 05:41:55;;;;;;;6.15;3.33;;;19.10;99.90;;;;;;5090829;28;20266;-51
2022/07/06 05:44:23;;;;;;;4.22;3.00;;;19.30;99.90;;;;;;5090448;28;20249;-51
2022/07/06 05:50:11;;;;;;;5.95;2.97;;;19.70;99.90;;;;;;5090135;28;20203;-52
2022/07/06 05:52:26;;;;;;;5.05;2.83;;;19.30;99.90;;;;;;5089492;28;20224;-52
2022/07/06 05:54:54;;;;;;;5.97;2.78;;;19.60;99.90;;;;;;5089029;28;20677;-52
2022/07/06 05:57:22;;;;;;;3.45;2.55;;;20.40;99.90;;;;;;5089958;28;20216;-51
2022/07/06 05:59:51;;;;;;;6.93;2.67;;;21.50;99.90;;;;;;5089436;28;20203;-52
2022/07/06 06:02:19;;;;;;;5.35;2.55;;;21.70;99.90;;;;;;5089242;28;20623;-52
2022/07/06 06:04:47;;;;;;;4.90;2.38;;;22.10;99.90;;;;;;5089721;28;20644;-52
2022/07/06 06:07:15;;;;;;;4.47;2.63;;;22.60;99.90;;;;;;5090617;28;20204;-52
2022/07/06 06:09:45;;;;;;;3.92;2.20;;;23.30;99.90;;;;;;5089313;28;20253;-52
2022/07/06 06:12:13;;;;;;;4.10;2.13;;;23.20;99.90;;;;;;5090136;28;20224;-51
2022/07/06 06:14:41;;;;;;;5.38;2.20;;;23.60;99.60;;;;;;5089437;28;20212;-51
2022/07/06 06:17:09;;;;;;;4.50;2.10;;;23.70;99.10;;;;;;5089705;28;20689;-52
2022/07/06 06:19:38;;;;;;;3.28;2.00;;;24.20;97.00;;;;;;5089852;28;20294;-52
2022/07/06 06:22:06;;;;;;;5.25;2.05;;;24.40;97.20;;;;;;5089546;28;20713;-52
2022/07/06 06:24:34;;;;;;;2.50;2.25;;;24.70;96.40;;;;;;5089557;28;20212;-52
2022/07/06 06:27:04;;;;;;;5.07;2.42;;;25.00;96.20;;;;;;5089321;28;20204;-52
2022/07/06 06:29:32;;;;;;;4.30;2.50;;;24.40;96.00;;;;;;5090063;28;20727;-52
2022/07/06 06:32:00;;;;;;;3.47;2.38;;;24.30;95.50;;;;;;5089136;28;20224;-52
2022/07/06 06:34:28;;;;;;;4.15;2.20;;;23.50;96.20;;;;;;5089870;28;20262;-52
2022/07/06 06:37:14;;;;;;;6.57;2.20;;;23.10;96.50;;;;;;5090759;28;20204;-51
2022/07/06 06:39:42;;;;;;;4.47;2.40;;;22.50;96.50;;;;;;5077370;28;20674;-52
2022/07/06 06:42:12;;;;;;;4.03;1.92;;;22.40;97.30;;;;;;5089879;28;20228;-53
2022/07/06 06:44:40;;;;;;;5.00;1.92;;;23.10;97.10;;;;;;5090730;28;20250;-51
2022/07/06 06:47:08;;;;;;;3.83;2.30;;;23.30;97.00;;;;;;5090595;28;20208;-51
2022/07/06 06:49:36;;;;;;;4.15;2.25;;;23.50;95.80;;;;;;5089833;28;20208;-51
2022/07/06 06:52:05;;;;;;;3.92;2.45;;;24.00;96.10;;;;;;5089350;28;20232;-52
2022/07/06 06:54:53;;;;;;;3.70;1.70;;;24.10;95.10;;;;;;5089431;28;20231;-51
2022/07/06 06:57:22;;;;;;;3.65;1.90;;;24.50;94.50;;;;;;5090310;28;20619;-51
2022/07/06 06:59:50;;;;;;;5.10;2.13;;;24.40;94.00;;;;;;5089755;28;20208;-51
2022/07/06 07:02:18;;;;;;;2.40;1.88;;;24.90;93.80;;;;;;5088742;28;20228;-51
2022/07/06 07:04:46;;;;;;;3.08;2.17;;;25.20;93.00;;;;;;5089458;28;20287;-51
2022/07/06 07:07:15;;;;;;;3.53;1.90;;;25.70;91.80;;;;;;5090085;28;20219;-52
2022/07/06 07:09:43;;;;;;;2.67;2.03;;;25.60;91.40;;;;;;5090274;28;20239;-51
2022/07/06 07:12:12;;;;;;;4.53;1.90;;;25.60;90.80;;;;;;5092033;28;20224;-51
2022/07/06 07:14:41;;;;;;;2.58;1.92;;;24.80;91.10;;;;;;5114028;28;20814;-52
2022/07/06 07:17:10;;;;;;;3.38;1.95;;;24.60;91.50;;;;;;5113736;28;20210;-52
2022/07/06 07:19:38;;;;;;;3.05;1.95;;;23.90;90.80;;;;;;5113947;28;20203;-52
2022/07/06 07:22:07;;;;;;;3.63;2.13;;;23.70;91.10;;;;;;5113909;28;20284;-51
2022/07/06 07:24:35;;;;;;;3.55;1.70;;;23.80;91.00;;;;;;5109428;28;20274;-51
2022/07/06 07:27:03;;;;;;;3.42;2.25;;;23.70;90.70;;;;;;5093413;28;20215;-51
2022/07/06 07:29:31;;;;;;;2.53;1.80;;;23.60;91.10;;;;;;5093491;28;20680;-52
2022/07/06 07:32:01;;;;;;;2.35;1.80;;;23.10;91.20;;;;;;5092913;28;20708;-51
2022/07/06 07:34:29;;;;;;;2.58;2.10;;;23.00;91.50;;;;;;5113143;28;20269;-51
2022/07/06 07:36:57;;;;;;;4.00;2.10;;;24.00;92.00;;;;;;5113596;28;20753;-51
2022/07/06 07:39:25;;;;;;;3.15;2.15;;;24.80;92.30;;;;;;5092551;28;20748;-52
2022/07/06 07:41:53;;;;;;;3.80;2.10;;;24.80;91.90;;;;;;5101633;28;20220;-51
2022/07/06 07:44:21;;;;;;;3.10;1.85;;;24.40;91.80;;;;;;5113033;28;20339;-52
2022/07/06 07:46:49;;;;;;;5.68;1.90;;;23.60;89.30;;;;;;5113454;28;20282;-51
2022/07/06 07:49:18;;;;;;;7.97;2.00;;;22.80;90.40;;;;;;5113359;28;20261;-51
2022/07/06 07:51:48;;;;;;;2.45;1.70;;;22.20;90.30;;;;;;5113623;28;20223;-51
2022/07/06 07:54:16;;;;;;;2.88;1.70;;;21.90;90.90;;;;;;5113200;28;20256;-51
2022/07/06 07:56:45;;;;;;;2.40;1.80;;;21.70;91.30;;;;;;5112962;28;20199;-51
2022/07/06 07:59:13;;;;;;;5.35;2.60;;;21.40;91.00;;;;;;5113831;28;20207;-53
2022/07/06 08:01:41;;;;;;;2.80;2.03;;;21.20;91.20;;;;;;5106667;28;20296;-50
2022/07/06 08:04:09;;;;;;;4.68;2.20;;;21.20;91.10;;;;;;5113882;28;20215;-50
2022/07/06 08:06:39;;;;;;;2.40;1.90;;;21.40;91.50;;;;;;5113380;28;20203;-50
2022/07/06 08:09:07;;;;;;;3.47;1.95;;;21.60;91.30;;;;;;5113187;28;20245;-51
2022/07/06 08:11:35;;;;;;;2.53;1.90;;;22.00;91.40;;;;;;5112122;28;20947;-51
2022/07/06 08:14:04;;;;;;;4.97;1.80;;;21.80;90.40;;;;;;5113353;28;20207;-51
2022/07/06 08:16:33;;;;;;;3.35;1.90;;;21.80;90.50;;;;;;5112727;28;20203;-51
2022/07/06 08:19:01;;;;;;;4.70;1.85;;;22.00;90.50;;;;;;5112801;28;20212;-51
2022/07/06 08:21:38;;;;;;;2.95;1.70;;;22.10;90.50;;;;;;5112219;28;20235;-51
2022/07/06 08:24:07;;;;;;;3.72;1.90;;;22.00;90.70;;;;;;5097913;28;20223;-51
2022/07/06 08:26:35;;;;;;;2.65;1.63;;;22.10;90.00;;;;;;5113665;28;20208;-50
2022/07/06 08:29:04;;;;;;;2.83;1.83;;;21.90;88.80;;;;;;5112833;28;20200;-50
2022/07/06 08:31:34;;;;;;;3.20;1.63;;;22.40;89.40;;;;;;5112847;28;20227;-50
2022/07/06 08:34:22;;;;;;;2.65;1.65;;;22.80;89.10;;;;;;5112572;28;20199;-50
2022/07/06 08:36:51;;;;;;;3.08;1.60;;;23.20;90.60;;;;;;5113112;28;20621;-51
2022/07/06 08:39:19;;;;;;;2.15;1.70;;;23.20;87.40;;;;;;5078428;28;20197;-51
2022/07/06 08:41:49;;;;;;;1.92;1.40;;;23.60;88.00;;;;;;5091643;28;20870;-51
2022/07/06 08:44:17;;;;;;;3.90;1.42;;;23.60;84.30;;;;;;5091993;28;20257;-51
2022/07/06 08:46:45;;;;;;;2.25;1.50;;;23.40;83.60;;;;;;5091928;28;20677;-51
2022/07/06 08:49:16;;;;;;;5.78;1.92;;;23.00;82.70;;;;;;5092081;28;20625;-51
2022/07/06 08:51:45;;;;;;;3.55;1.70;;;22.70;84.10;;;;;;5091808;28;20805;-51
2022/07/06 08:54:15;;;;;;;2.50;1.60;;;22.60;85.10;;;;;;5090068;28;20234;-50
2022/07/06 08:56:44;;;;;;;3.20;1.33;;;22.60;84.60;;;;;;5091325;28;20661;-51
2022/07/06 08:59:16;;;;;;;6.25;1.60;;;22.20;85.90;;;;;;5092021;28;20208;-51
2022/07/06 09:01:45;;;;;;;1.83;1.30;;;21.90;86.10;;;;;;5091249;28;20885;-51
2022/07/06 09:04:16;;;;;;;2.35;1.45;;;21.50;86.90;;;;;;5092174;28;20335;-51
2022/07/06 09:06:47;;;;;;;2.80;1.33;;;21.60;86.50;;;;;;5078063;28;20196;-50
2022/07/06 09:09:22;;;;;;;7.65;4.60;;;21.80;86.60;;;;;;5090900;28;20669;-50
2022/07/06 09:11:50;;;;;;;4.63;2.85;;;22.20;86.20;;;;;;5081571;28;20268;-51
2022/07/06 09:14:19;;;;;;;2.92;2.53;;;22.40;84.40;;;;;;5091457;28;20258;-51
2022/07/06 09:16:52;;;;;;;3.10;1.27;;;22.40;82.00;;;;;;5091484;28;20227;-50
2022/07/06 09:19:20;;;;;;;1.70;1.60;;;22.90;81.90;;;;;;5083192;28;20216;-51
2022/07/06 09:21:49;;;;;;;2.33;1.08;;;22.60;81.10;;;;;;5090715;28;20269;-51
2022/07/06 09:24:19;;;;;;;2.33;1.00;;;22.70;83.60;;;;;;5090200;28;20269;-51
2022/07/06 09:26:48;;;;;;;3.17;1.40;;;22.60;84.60;;;;;;5090989;28;20700;-51
2022/07/06 09:29:16;;;;;;;2.78;1.17;;;22.40;83.90;;;;;;5090551;28;20742;-51
2022/07/06 09:31:57;;;;;;;1.88;1.00;;;22.20;85.50;;;;;;5080753;28;20226;-50
2022/07/06 09:34:26;;;;;;;3.08;1.38;;;22.00;81.50;;;;;;5081486;28;20203;-51
2022/07/06 09:36:55;;;;;;;2.92;1.40;;;22.40;86.30;;;;;;5086883;28;20287;-51
2022/07/06 09:39:26;;;;;;;1.70;1.30;;;22.60;82.50;;;;;;5075651;28;20621;-50
2022/07/06 09:41:56;;;;;;;2.67;1.27;;;22.40;83.90;;;;;;5090385;28;20224;-51
2022/07/06 09:44:26;;;;;;;3.00;1.20;;;22.30;83.70;;;;;;5090462;28;20223;-50
2022/07/06 09:46:56;;;;;;;2.22;1.17;;;22.20;84.50;;;;;;5090310;28;20208;-51
2022/07/06 09:49:25;;;;;;;3.05;1.55;;;22.30;86.80;;;;;;5090557;28;20254;-51
2022/07/06 09:51:55;;;;;;;1.92;1.17;;;22.40;85.60;;;;;;5089873;28;20642;-51
2022/07/06 09:54:25;;;;;;;1.55;1.20;;;22.10;81.40;;;;;;5089762;28;20259;-51
2022/07/06 09:56:54;;;;;;;3.67;1.30;;;22.00;83.30;;;;;;5090505;28;20204;-50
2022/07/06 09:59:24;;;;;;;4.90;1.30;;;22.00;84.10;;;;;;5089846;28;20269;-51
2022/07/06 10:01:54;;;;;;;4.13;0.90;;;22.40;84.30;;;;;;5090005;28;20727;-51
2022/07/06 10:04:23;;;;;;;2.20;1.15;;;22.50;81.60;;;;;;5089476;28;20958;-51
2022/07/06 10:06:52;;;;;;;3.30;1.13;;;22.60;81.80;;;;;;5090075;28;20204;-50
2022/07/06 10:09:21;;;;;;;2.05;0.90;;;22.60;81.20;;;;;;5089269;28;20328;-50
2022/07/06 10:11:52;;;;;;;3.17;1.40;;;22.50;81.40;;;;;;5089982;28;20285;-51
2022/07/06 10:14:23;;;;;;;4.30;1.40;;;22.60;84.00;;;;;;5085178;28;20736;-50
2022/07/06 10:16:52;;;;;;;1.75;0.98;;;22.50;84.10;;;;;;5088431;28;20204;-51
2022/07/06 10:19:22;;;;;;;2.38;1.20;;;22.30;83.90;;;;;;5089459;28;20718;-51
2022/07/06 10:21:52;;;;;;;2.13;1.20;;;22.10;83.20;;;;;;5088945;28;20770;-50
2022/07/06 10:24:21;;;;;;;4.10;1.23;;;22.10;84.00;;;;;;5088884;28;20269;-51
2022/07/06 10:26:50;;;;;;;2.70;1.30;;;22.10;85.10;;;;;;5089215;28;20325;-50
2022/07/06 10:29:19;;;;;;;2.70;1.35;;;22.30;86.00;;;;;;5089689;28;20204;-51
2022/07/06 10:31:50;;;;;;;2.55;1.10;;;22.50;87.20;;;;;;5088344;28;20618;-51
2022/07/06 10:34:20;;;;;;;2.42;1.00;;;22.40;83.40;;;;;;5089416;28;20208;-50
2022/07/06 10:36:53;;;;;;;1.27;0.88;;;22.20;83.50;;;;;;5089057;28;20618;-50
2022/07/06 10:42:43;;;;;;;2.47;1.10;;;22.20;84.80;;;;;;5084448;28;20590;-51
2022/07/06 10:45:13;;;;;;;2.35;1.15;;;22.20;82.60;;;;;;5088959;28;20228;-51
2022/07/06 10:47:42;;;;;;;1.73;0.85;;;22.40;84.70;;;;;;5089106;28;20284;-51
2022/07/06 10:50:11;;;;;;;2.13;1.08;;;22.80;84.90;;;;;;5089590;28;20231;-50
2022/07/06 10:52:51;;;;;;;3.65;1.42;;;22.90;87.00;;;;;;5089485;28;20248;-51
2022/07/06 10:55:32;;;;;;;3.20;0.93;;;23.10;84.90;;;;;;5088639;28;20196;-50
2022/07/06 10:58:02;;;;;;;3.58;1.27;;;23.30;80.50;;;;;;5089210;28;20235;-51
2022/07/06 11:01:00;;;;;;;1.50;1.00;;;23.30;82.50;;;;;;5089067;28;20212;-50
2022/07/06 11:03:33;;;;;;;2.10;0.90;;;23.60;84.00;;;;;;5006940;28;20237;-50
2022/07/06 11:06:03;;;;;;;1.40;0.88;;;23.40;81.90;;;;;;5071615;28;20228;-51
2022/07/06 11:08:58;;;;;;;2.15;0.98;;;23.30;83.00;;;;;;5088882;28;20310;-51
2022/07/06 11:11:38;;;;;;;2.92;1.00;;;23.10;82.10;;;;;;5083180;28;20266;-51
2022/07/06 11:14:09;;;;;;;2.60;0.90;;;23.00;83.00;;;;;;5089357;28;20208;-51
2022/07/06 11:16:39;;;;;;;3.22;1.05;;;22.90;81.50;;;;;;5088634;28;20254;-50
2022/07/06 11:19:10;;;;;;;2.70;0.82;;;23.00;80.70;;;;;;5088732;28;20739;-51
2022/07/06 11:21:47;;;;;;;3.10;1.00;;;22.90;81.50;;;;;;5088808;28;20605;-51
2022/07/06 11:24:17;;;;;;;2.17;1.05;;;22.70;80.60;;;;;;5089015;28;20627;-50
2022/07/06 11:26:47;;;;;;;1.77;1.02;;;22.40;81.10;;;;;;5089095;28;20285;-50
2022/07/06 11:29:18;;;;;;;3.05;0.90;;;22.50;82.00;;;;;;5088366;28;20228;-51
2022/07/06 11:31:47;;;;;;;2.85;0.98;;;22.60;83.00;;;;;;5081359;28;20252;-50
2022/07/06 11:34:20;;;;;;;5.38;1.10;;;22.70;83.60;;;;;;5103757;28;20204;-51
2022/07/06 11:36:48;;;;;;;3.60;1.05;;;22.70;79.90;;;;;;5106852;28;20191;-51
2022/07/06 11:39:17;;;;;;;1.95;1.13;;;22.50;79.20;;;;;;5075722;28;20572;-50
2022/07/06 11:41:45;;;;;;;1.67;0.82;;;22.40;77.40;;;;;;5089176;28;20647;-50
2022/07/06 11:44:20;;;;;;;2.20;1.00;;;22.60;79.00;;;;;;5089173;28;20704;-51
2022/07/06 11:46:48;;;;;;;2.60;1.17;;;22.80;77.30;;;;;;5088727;28;20277;-51
2022/07/06 11:49:16;;;;;;;3.13;1.25;;;22.90;80.90;;;;;;5089504;28;20208;-51
2022/07/06 11:51:46;;;;;;;2.97;1.10;;;23.20;82.30;;;;;;5089139;28;21118;-51
2022/07/06 11:54:16;;;;;;;2.17;0.75;;;23.30;81.40;;;;;;5105017;28;20612;-51
2022/07/06 11:56:48;;;;;;;2.30;1.10;;;23.40;80.00;;;;;;5108728;28;20233;-52
2022/07/06 11:59:17;;;;;;;2.95;0.70;;;23.20;77.20;;;;;;5113368;28;20230;-51
2022/07/06 12:01:47;;;;;;;2.65;1.30;;;23.30;78.30;;;;;;5099095;28;20284;-51
2022/07/06 12:04:15;;;;;;;1.98;0.93;;;23.30;79.10;;;;;;5113283;28;20199;-51
2022/07/06 12:06:44;;;;;;;1.42;0.90;;;23.50;79.20;;;;;;5112928;28;20220;-51
2022/07/06 12:09:14;;;;;;;1.77;0.90;;;23.40;77.80;;;;;;5112238;28;20261;-51
2022/07/06 12:11:46;;;;;;;2.08;1.10;;;23.40;78.50;;;;;;5112324;28;20731;-51
2022/07/06 12:14:16;;;;;;;0.75;0.68;;;23.60;80.90;;;;;;5113136;28;20257;-52
2022/07/06 12:16:45;;;;;;;1.13;0.75;;;23.50;80.50;;;;;;5113038;28;20253;-52
2022/07/06 12:19:15;;;;;;;2.58;1.33;;;23.20;80.60;;;;;;5112421;28;20228;-51
2022/07/06 12:21:45;;;;;;;2.78;1.20;;;23.10;79.50;;;;;;5104851;28;20227;-51
2022/07/06 12:24:21;;;;;;;1.88;1.25;;;22.90;79.40;;;;;;5112426;28;20312;-51
2022/07/06 12:26:51;;;;;;;3.20;1.02;;;22.90;79.30;;;;;;5112745;28;20572;-51
2022/07/06 12:29:21;;;;;;;1.60;0.93;;;22.90;81.00;;;;;;5112783;28;20230;-51
2022/07/06 12:31:52;;;;;;;1.52;0.93;;;23.10;80.50;;;;;;5111353;28;20231;-51
2022/07/06 12:34:23;;;;;;;2.95;0.85;;;23.20;80.20;;;;;;5112620;28;20210;-52
2022/07/06 12:36:52;;;;;;;2.58;1.30;;;23.20;79.20;;;;;;5111888;28;20680;-51
2022/07/06 12:39:22;;;;;;;4.35;0.90;;;23.20;79.80;;;;;;5078525;28;20258;-51
2022/07/06 12:41:51;;;;;;;2.20;0.82;;;23.10;78.70;;;;;;5080096;28;20316;-51
2022/07/06 12:44:21;;;;;;;2.88;1.08;;;23.00;78.60;;;;;;5089953;28;20200;-51
2022/07/06 12:46:51;;;;;;;3.00;1.00;;;23.00;79.20;;;;;;5086445;28;20247;-51
2022/07/06 12:49:23;;;;;;;2.83;0.95;;;23.20;83.20;;;;;;5087361;28;20596;-51
2022/07/06 12:52:00;;;;;;;2.40;1.20;;;23.50;80.90;;;;;;5089923;28;20224;-51
2022/07/06 12:54:32;;;;;;;4.18;1.35;;;23.50;79.40;;;;;;5099165;28;20258;-51
2022/07/06 12:57:12;;;;;;;1.38;0.98;;;23.50;80.00;;;;;;5110189;28;20199;-52
2022/07/06 12:59:44;;;;;;;1.48;0.90;;;23.60;80.70;;;;;;5109855;28;20249;-51
2022/07/06 13:02:20;;;;;;;4.32;1.00;;;23.40;77.70;;;;;;5102213;28;20231;-51
2022/07/06 13:05:11;;;;;;;3.85;1.20;;;23.30;80.10;;;;;;5090509;28;20200;-51
2022/07/06 13:07:45;;;;;;;2.95;0.93;;;23.00;79.00;;;;;;5089809;28;20269;-51
2022/07/06 13:10:15;;;;;;;1.52;1.00;;;23.00;80.90;;;;;;5089119;28;20200;-51